Rochester, New York
Current Conditions -  °F | °C
As of 9:54 PM on Saturday 22 Nov 2014 (Local Time) from KROC Reporting Station
Light Rain Light Rain  
Wind Chill: 37°   Ceiling: 2000
Heat Index: 44°   Visibility: 8mi
Dew Point: 41°   Wind: 15mph
Humidity: 89%   Direction: 220°SW
Pressure: 29.98"   Gusts: NA
Location:  43.16°N, 77.62°W
Report Text: KROC 230254Z 22013KT 8SM -RA OVC020 07/05 A2998 RMK AO2 RAB04 SLP159 P0001 60001 T00670050 53004
Loading
Personal Weather Stations






























Interactive Weather Map New forecast layout! Learn more

10-Day Weather Forecast

Advertisements
Track Severe Weather on mobile